sensor_id;sensor_type;location;lat;lon;timestamp;temperature;humidity
69009;SHT31;56065;52.472;13.380;2024-03-07T00:00:04;9.65;84.75
69009;SHT31;56065;52.472;13.380;2024-03-07T00:02:32;9.68;84.45
69009;SHT31;56065;52.472;13.380;2024-03-07T00:04:59;9.63;84.77
69009;SHT31;56065;52.472;13.380;2024-03-07T00:07:24;9.61;84.83
69009;SHT31;56065;52.472;13.380;2024-03-07T00:09:49;9.58;84.78
69009;SHT31;56065;52.472;13.380;2024-03-07T00:12:16;9.56;84.86
69009;SHT31;56065;52.472;13.380;2024-03-07T00:14:41;9.61;84.78
69009;SHT31;56065;52.472;13.380;2024-03-07T00:17:06;9.68;84.25
69009;SHT31;56065;52.472;13.380;2024-03-07T00:19:32;9.71;83.99
69009;SHT31;56065;52.472;13.380;2024-03-07T00:21:57;9.71;84.14
69009;SHT31;56065;52.472;13.380;2024-03-07T00:24:23;9.55;84.37
69009;SHT31;56065;52.472;13.380;2024-03-07T00:26:49;9.63;84.01
69009;SHT31;56065;52.472;13.380;2024-03-07T00:29:18;9.58;84.30
69009;SHT31;56065;52.472;13.380;2024-03-07T00:31:44;9.52;84.42
69009;SHT31;56065;52.472;13.380;2024-03-07T00:34:12;9.51;84.57
69009;SHT31;56065;52.472;13.380;2024-03-07T00:36:40;9.51;84.40
69009;SHT31;56065;52.472;13.380;2024-03-07T00:39:05;9.45;84.62
69009;SHT31;56065;52.472;13.380;2024-03-07T00:41:33;9.51;84.47
69009;SHT31;56065;52.472;13.380;2024-03-07T00:43:58;9.52;84.21
69009;SHT31;56065;52.472;13.380;2024-03-07T00:46:24;9.59;84.04
69009;SHT31;56065;52.472;13.380;2024-03-07T00:48:49;9.58;83.66
69009;SHT31;56065;52.472;13.380;2024-03-07T00:51:14;9.56;83.91
69009;SHT31;56065;52.472;13.380;2024-03-07T00:53:40;9.52;83.73
69009;SHT31;56065;52.472;13.380;2024-03-07T00:56:06;9.49;83.80
69009;SHT31;56065;52.472;13.380;2024-03-07T00:58:31;9.46;84.19
69009;SHT31;56065;52.472;13.380;2024-03-07T01:00:57;9.52;83.79
69009;SHT31;56065;52.472;13.380;2024-03-07T01:03:22;9.44;84.14
69009;SHT31;56065;52.472;13.380;2024-03-07T01:05:49;9.41;84.16
69009;SHT31;56065;52.472;13.380;2024-03-07T01:08:14;9.39;84.01
69009;SHT31;56065;52.472;13.380;2024-03-07T01:10:40;9.39;83.83
69009;SHT31;56065;52.472;13.380;2024-03-07T01:13:05;9.35;83.78
69009;SHT31;56065;52.472;13.380;2024-03-07T01:15:34;9.31;83.75
69009;SHT31;56065;52.472;13.380;2024-03-07T01:17:59;9.28;83.77
69009;SHT31;56065;52.472;13.380;2024-03-07T01:20:24;9.22;83.94
69009;SHT31;56065;52.472;13.380;2024-03-07T01:22:51;9.20;84.04
69009;SHT31;56065;52.472;13.380;2024-03-07T01:25:16;9.08;84.48
69009;SHT31;56065;52.472;13.380;2024-03-07T01:27:42;9.04;84.34
69009;SHT31;56065;52.472;13.380;2024-03-07T01:30:07;8.99;84.30
69009;SHT31;56065;52.472;13.380;2024-03-07T01:32:33;8.96;84.21
69009;SHT31;56065;52.472;13.380;2024-03-07T01:34:59;8.99;84.45
69009;SHT31;56065;52.472;13.380;2024-03-07T01:37:24;8.93;84.15
69009;SHT31;56065;52.472;13.380;2024-03-07T01:39:49;8.91;84.17
69009;SHT31;56065;52.472;13.380;2024-03-07T01:42:15;8.85;84.03
69009;SHT31;56065;52.472;13.380;2024-03-07T01:44:40;8.80;84.02
69009;SHT31;56065;52.472;13.380;2024-03-07T01:47:07;8.79;84.01
69009;SHT31;56065;52.472;13.380;2024-03-07T01:49:33;8.69;84.69
69009;SHT31;56065;52.472;13.380;2024-03-07T01:51:58;8.73;84.51
69009;SHT31;56065;52.472;13.380;2024-03-07T01:54:25;8.76;84.32
69009;SHT31;56065;52.472;13.380;2024-03-07T01:56:51;8.72;84.46
69009;SHT31;56065;52.472;13.380;2024-03-07T01:59:17;8.72;84.30
69009;SHT31;56065;52.472;13.380;2024-03-07T02:01:45;8.70;84.25
69009;SHT31;56065;52.472;13.380;2024-03-07T02:04:12;8.54;84.38
69009;SHT31;56065;52.472;13.380;2024-03-07T02:06:37;8.50;84.47
69009;SHT31;56065;52.472;13.380;2024-03-07T02:09:03;8.45;84.76
69009;SHT31;56065;52.472;13.380;2024-03-07T02:11:30;8.50;84.59
69009;SHT31;56065;52.472;13.380;2024-03-07T02:13:55;8.45;84.39
69009;SHT31;56065;52.472;13.380;2024-03-07T02:16:20;8.48;84.26
69009;SHT31;56065;52.472;13.380;2024-03-07T02:18:46;8.38;84.30
69009;SHT31;56065;52.472;13.380;2024-03-07T02:21:12;8.28;84.40
69009;SHT31;56065;52.472;13.380;2024-03-07T02:23:37;8.16;84.27
69009;SHT31;56065;52.472;13.380;2024-03-07T02:26:03;8.09;84.35
69009;SHT31;56065;52.472;13.380;2024-03-07T02:28:29;7.94;84.68
69009;SHT31;56065;52.472;13.380;2024-03-07T02:30:54;7.87;85.34
69009;SHT31;56065;52.472;13.380;2024-03-07T02:33:20;7.78;84.96
69009;SHT31;56065;52.472;13.380;2024-03-07T02:35:45;7.73;85.78
69009;SHT31;56065;52.472;13.380;2024-03-07T02:38:10;7.69;85.44
69009;SHT31;56065;52.472;13.380;2024-03-07T02:40:36;7.66;85.58
69009;SHT31;56065;52.472;13.380;2024-03-07T02:43:01;7.59;86.03
69009;SHT31;56065;52.472;13.380;2024-03-07T02:45:30;7.60;86.32
69009;SHT31;56065;52.472;13.380;2024-03-07T02:47:55;7.57;86.74
69009;SHT31;56065;52.472;13.380;2024-03-07T02:50:21;7.60;86.73
69009;SHT31;56065;52.472;13.380;2024-03-07T02:52:49;7.60;86.56
69009;SHT31;56065;52.472;13.380;2024-03-07T02:55:18;7.59;86.96
69009;SHT31;56065;52.472;13.380;2024-03-07T02:57:44;7.56;86.89
69009;SHT31;56065;52.472;13.380;2024-03-07T03:00:10;7.51;86.67
69009;SHT31;56065;52.472;13.380;2024-03-07T03:02:48;7.43;86.64
69009;SHT31;56065;52.472;13.380;2024-03-07T03:05:14;7.39;87.19
69009;SHT31;56065;52.472;13.380;2024-03-07T03:07:40;7.32;87.01
69009;SHT31;56065;52.472;13.380;2024-03-07T03:10:06;7.20;87.46
69009;SHT31;56065;52.472;13.380;2024-03-07T03:12:37;7.18;87.43
69009;SHT31;56065;52.472;13.380;2024-03-07T03:15:04;7.15;87.78
69009;SHT31;56065;52.472;13.380;2024-03-07T03:17:30;7.12;87.47
69009;SHT31;56065;52.472;13.380;2024-03-07T03:19:56;7.02;87.56
69009;SHT31;56065;52.472;13.380;2024-03-07T03:22:22;6.99;87.38
69009;SHT31;56065;52.472;13.380;2024-03-07T03:24:47;6.98;88.05
69009;SHT31;56065;52.472;13.380;2024-03-07T03:27:12;7.01;87.80
69009;SHT31;56065;52.472;13.380;2024-03-07T03:29:37;7.05;87.55
69009;SHT31;56065;52.472;13.380;2024-03-07T03:32:03;6.98;87.52
69009;SHT31;56065;52.472;13.380;2024-03-07T03:34:29;6.89;87.84
69009;SHT31;56065;52.472;13.380;2024-03-07T03:36:54;6.88;87.83
69009;SHT31;56065;52.472;13.380;2024-03-07T03:39:19;6.85;87.89
69009;SHT31;56065;52.472;13.380;2024-03-07T03:41:46;6.79;87.93
69009;SHT31;56065;52.472;13.380;2024-03-07T03:44:11;6.81;87.66
69009;SHT31;56065;52.472;13.380;2024-03-07T03:46:36;6.82;87.57
69009;SHT31;56065;52.472;13.380;2024-03-07T03:49:02;6.84;87.93
69009;SHT31;56065;52.472;13.380;2024-03-07T03:51:27;6.78;88.00
69009;SHT31;56065;52.472;13.380;2024-03-07T03:53:53;6.78;87.66
69009;SHT31;56065;52.472;13.380;2024-03-07T03:56:18;6.75;87.53
69009;SHT31;56065;52.472;13.380;2024-03-07T03:58:44;6.67;87.58
69009;SHT31;56065;52.472;13.380;2024-03-07T04:01:09;6.60;87.49
69009;SHT31;56065;52.472;13.380;2024-03-07T04:03:38;6.50;87.54
69009;SHT31;56065;52.472;13.380;2024-03-07T04:06:04;6.45;87.08
69009;SHT31;56065;52.472;13.380;2024-03-07T04:08:30;6.37;87.49
69009;SHT31;56065;52.472;13.380;2024-03-07T04:10:55;6.26;87.67
69009;SHT31;56065;52.472;13.380;2024-03-07T04:13:20;6.19;87.76
69009;SHT31;56065;52.472;13.380;2024-03-07T04:15:47;6.19;87.69
69009;SHT31;56065;52.472;13.380;2024-03-07T04:18:13;6.11;87.57
69009;SHT31;56065;52.472;13.380;2024-03-07T04:20:38;6.05;88.15
69009;SHT31;56065;52.472;13.380;2024-03-07T04:23:04;6.00;88.26
69009;SHT31;56065;52.472;13.380;2024-03-07T04:25:31;5.96;87.85
69009;SHT31;56065;52.472;13.380;2024-03-07T04:27:58;5.90;87.76
69009;SHT31;56065;52.472;13.380;2024-03-07T04:30:24;5.85;87.89
69009;SHT31;56065;52.472;13.380;2024-03-07T04:32:49;5.82;87.98
69009;SHT31;56065;52.472;13.380;2024-03-07T04:35:14;5.79;88.00
69009;SHT31;56065;52.472;13.380;2024-03-07T04:37:40;5.79;87.85
69009;SHT31;56065;52.472;13.380;2024-03-07T04:40:07;5.75;87.96
69009;SHT31;56065;52.472;13.380;2024-03-07T04:42:48;5.73;87.92
69009;SHT31;56065;52.472;13.380;2024-03-07T04:45:17;5.66;88.10
69009;SHT31;56065;52.472;13.380;2024-03-07T04:47:43;5.65;87.85
69009;SHT31;56065;52.472;13.380;2024-03-07T04:50:12;5.58;88.09
69009;SHT31;56065;52.472;13.380;2024-03-07T04:52:39;5.58;87.94
69009;SHT31;56065;52.472;13.380;2024-03-07T04:55:08;5.54;88.24
69009;SHT31;56065;52.472;13.380;2024-03-07T04:57:37;5.51;88.20
69009;SHT31;56065;52.472;13.380;2024-03-07T05:00:09;5.45;88.25
69009;SHT31;56065;52.472;13.380;2024-03-07T05:02:46;5.38;88.42
69009;SHT31;56065;52.472;13.380;2024-03-07T05:05:11;5.37;88.66
69009;SHT31;56065;52.472;13.380;2024-03-07T05:07:38;5.37;89.07
69009;SHT31;56065;52.472;13.380;2024-03-07T05:10:04;5.34;88.90
69009;SHT31;56065;52.472;13.380;2024-03-07T05:12:30;5.34;88.41
69009;SHT31;56065;52.472;13.380;2024-03-07T05:14:56;5.32;88.51
69009;SHT31;56065;52.472;13.380;2024-03-07T05:17:21;5.30;88.25
69009;SHT31;56065;52.472;13.380;2024-03-07T05:19:47;5.27;88.20
69009;SHT31;56065;52.472;13.380;2024-03-07T05:22:14;5.24;88.27
69009;SHT31;56065;52.472;13.380;2024-03-07T05:24:41;5.21;88.19
69009;SHT31;56065;52.472;13.380;2024-03-07T05:27:08;5.18;87.98
69009;SHT31;56065;52.472;13.380;2024-03-07T05:29:36;5.10;88.23
69009;SHT31;56065;52.472;13.380;2024-03-07T05:32:20;5.11;88.59
69009;SHT31;56065;52.472;13.380;2024-03-07T05:34:45;5.10;88.36
69009;SHT31;56065;52.472;13.380;2024-03-07T05:37:11;5.08;88.06
69009;SHT31;56065;52.472;13.380;2024-03-07T05:39:36;5.08;88.29
69009;SHT31;56065;52.472;13.380;2024-03-07T05:42:01;5.06;88.08
69009;SHT31;56065;52.472;13.380;2024-03-07T05:44:29;5.07;88.53
69009;SHT31;56065;52.472;13.380;2024-03-07T05:46:54;5.13;88.28
69009;SHT31;56065;52.472;13.380;2024-03-07T05:49:19;5.11;88.14
69009;SHT31;56065;52.472;13.380;2024-03-07T05:51:48;5.17;88.23
69009;SHT31;56065;52.472;13.380;2024-03-07T05:54:14;5.18;88.47
69009;SHT31;56065;52.472;13.380;2024-03-07T05:56:40;5.21;88.53
69009;SHT31;56065;52.472;13.380;2024-03-07T05:59:09;5.26;88.63
69009;SHT31;56065;52.472;13.380;2024-03-07T06:01:37;5.34;88.25
69009;SHT31;56065;52.472;13.380;2024-03-07T06:04:03;5.44;88.44
69009;SHT31;56065;52.472;13.380;2024-03-07T06:06:31;5.45;88.01
69009;SHT31;56065;52.472;13.380;2024-03-07T06:08:58;5.55;87.73
69009;SHT31;56065;52.472;13.380;2024-03-07T06:11:24;5.59;87.78
69009;SHT31;56065;52.472;13.380;2024-03-07T06:13:51;5.61;87.39
69009;SHT31;56065;52.472;13.380;2024-03-07T06:16:16;5.62;87.35
69009;SHT31;56065;52.472;13.380;2024-03-07T06:18:43;5.69;87.10
69009;SHT31;56065;52.472;13.380;2024-03-07T06:21:10;6.10;86.40
69009;SHT31;56065;52.472;13.380;2024-03-07T06:23:35;6.81;84.82
69009;SHT31;56065;52.472;13.380;2024-03-07T06:26:01;7.56;82.84
69009;SHT31;56065;52.472;13.380;2024-03-07T06:28:28;8.36;81.47
69009;SHT31;56065;52.472;13.380;2024-03-07T06:30:54;9.11;79.61
69009;SHT31;56065;52.472;13.380;2024-03-07T06:33:20;9.81;77.64
69009;SHT31;56065;52.472;13.380;2024-03-07T06:35:46;10.47;76.26
69009;SHT31;56065;52.472;13.380;2024-03-07T06:38:11;10.88;74.71
69009;SHT31;56065;52.472;13.380;2024-03-07T06:40:38;11.42;73.18
69009;SHT31;56065;52.472;13.380;2024-03-07T06:43:06;12.01;72.43
69009;SHT31;56065;52.472;13.380;2024-03-07T06:45:38;12.45;70.81
69009;SHT31;56065;52.472;13.380;2024-03-07T06:48:05;12.82;69.36
69009;SHT31;56065;52.472;13.380;2024-03-07T06:50:36;13.34;68.29
69009;SHT31;56065;52.472;13.380;2024-03-07T06:53:02;13.40;65.76
69009;SHT31;56065;52.472;13.380;2024-03-07T06:55:28;13.53;66.44
69009;SHT31;56065;52.472;13.380;2024-03-07T06:57:53;13.57;66.04
69009;SHT31;56065;52.472;13.380;2024-03-07T07:00:20;13.79;64.88
69009;SHT31;56065;52.472;13.380;2024-03-07T07:02:47;14.34;63.58
69009;SHT31;56065;52.472;13.380;2024-03-07T07:05:13;14.73;62.50
69009;SHT31;56065;52.472;13.380;2024-03-07T07:07:58;14.92;61.94
69009;SHT31;56065;52.472;13.380;2024-03-07T07:10:23;14.67;61.19
69009;SHT31;56065;52.472;13.380;2024-03-07T07:12:50;14.38;62.26
69009;SHT31;56065;52.472;13.380;2024-03-07T07:15:18;13.92;63.06
69009;SHT31;56065;52.472;13.380;2024-03-07T07:17:47;12.97;63.18
69009;SHT31;56065;52.472;13.380;2024-03-07T07:20:18;12.66;64.13
69009;SHT31;56065;52.472;13.380;2024-03-07T07:22:45;12.70;63.68
69009;SHT31;56065;52.472;13.380;2024-03-07T07:25:15;13.55;62.80
69009;SHT31;56065;52.472;13.380;2024-03-07T07:27:45;14.44;61.04
69009;SHT31;56065;52.472;13.380;2024-03-07T07:30:13;15.49;59.92
69009;SHT31;56065;52.472;13.380;2024-03-07T07:32:39;16.05;58.25
69009;SHT31;56065;52.472;13.380;2024-03-07T07:35:06;16.58;56.87
69009;SHT31;56065;52.472;13.380;2024-03-07T07:37:39;17.22;56.15
69009;SHT31;56065;52.472;13.380;2024-03-07T07:40:07;17.38;55.39
69009;SHT31;56065;52.472;13.380;2024-03-07T07:42:38;17.31;54.57
69009;SHT31;56065;52.472;13.380;2024-03-07T07:45:10;17.70;54.58
69009;SHT31;56065;52.472;13.380;2024-03-07T07:47:38;17.86;54.00
69009;SHT31;56065;52.472;13.380;2024-03-07T07:50:07;18.15;53.10
69009;SHT31;56065;52.472;13.380;2024-03-07T07:52:40;18.73;52.63
69009;SHT31;56065;52.472;13.380;2024-03-07T07:55:05;19.21;51.46
69009;SHT31;56065;52.472;13.380;2024-03-07T07:57:32;19.70;51.39
69009;SHT31;56065;52.472;13.380;2024-03-07T07:59:57;19.97;51.09
69009;SHT31;56065;52.472;13.380;2024-03-07T08:02:22;19.18;51.41
69009;SHT31;56065;52.472;13.380;2024-03-07T08:04:48;18.28;52.31
69009;SHT31;56065;52.472;13.380;2024-03-07T08:07:14;16.93;53.20
69009;SHT31;56065;52.472;13.380;2024-03-07T08:09:40;16.07;54.80
69009;SHT31;56065;52.472;13.380;2024-03-07T08:12:05;15.97;55.83
69009;SHT31;56065;52.472;13.380;2024-03-07T08:14:31;16.31;56.12
69009;SHT31;56065;52.472;13.380;2024-03-07T08:16:56;16.49;54.92
69009;SHT31;56065;52.472;13.380;2024-03-07T08:19:22;16.58;54.60
69009;SHT31;56065;52.472;13.380;2024-03-07T08:21:48;16.58;54.35
69009;SHT31;56065;52.472;13.380;2024-03-07T08:24:13;17.27;54.06
69009;SHT31;56065;52.472;13.380;2024-03-07T08:26:39;18.25;53.05
69009;SHT31;56065;52.472;13.380;2024-03-07T08:29:09;19.01;51.25
69009;SHT31;56065;52.472;13.380;2024-03-07T08:31:34;19.49;50.24
69009;SHT31;56065;52.472;13.380;2024-03-07T08:34:00;19.56;50.63
69009;SHT31;56065;52.472;13.380;2024-03-07T08:36:25;20.33;49.19
69009;SHT31;56065;52.472;13.380;2024-03-07T08:38:51;21.10;48.19
69009;SHT31;56065;52.472;13.380;2024-03-07T08:41:17;22.02;47.48
69009;SHT31;56065;52.472;13.380;2024-03-07T08:43:43;22.01;46.42
69009;SHT31;56065;52.472;13.380;2024-03-07T08:46:09;22.32;45.76
69009;SHT31;56065;52.472;13.380;2024-03-07T08:48:35;22.96;45.82
69009;SHT31;56065;52.472;13.380;2024-03-07T08:51:00;23.26;45.12
69009;SHT31;56065;52.472;13.380;2024-03-07T08:53:25;22.85;44.48
69009;SHT31;56065;52.472;13.380;2024-03-07T08:55:51;23.03;44.68
69009;SHT31;56065;52.472;13.380;2024-03-07T08:58:16;23.26;44.08
69009;SHT31;56065;52.472;13.380;2024-03-07T09:00:41;23.30;43.76
69009;SHT31;56065;52.472;13.380;2024-03-07T09:03:07;23.00;44.18
69009;SHT31;56065;52.472;13.380;2024-03-07T09:05:34;23.41;44.24
69009;SHT31;56065;52.472;13.380;2024-03-07T09:08:00;23.68;44.25
69009;SHT31;56065;52.472;13.380;2024-03-07T09:10:25;23.28;43.12
69009;SHT31;56065;52.472;13.380;2024-03-07T09:12:52;23.33;43.00
69009;SHT31;56065;52.472;13.380;2024-03-07T09:15:18;23.34;43.10
69009;SHT31;56065;52.472;13.380;2024-03-07T09:17:44;23.48;43.30
69009;SHT31;56065;52.472;13.380;2024-03-07T09:20:10;23.81;43.78
69009;SHT31;56065;52.472;13.380;2024-03-07T09:22:42;23.71;42.84
69009;SHT31;56065;52.472;13.380;2024-03-07T09:25:08;24.06;42.44
69009;SHT31;56065;52.472;13.380;2024-03-07T09:27:34;24.15;41.25
69009;SHT31;56065;52.472;13.380;2024-03-07T09:29:59;24.37;41.61
69009;SHT31;56065;52.472;13.380;2024-03-07T09:32:25;24.56;41.37
69009;SHT31;56065;52.472;13.380;2024-03-07T09:34:50;25.21;41.10
69009;SHT31;56065;52.472;13.380;2024-03-07T09:37:15;25.11;39.97
69009;SHT31;56065;52.472;13.380;2024-03-07T09:39:41;24.27;40.50
69009;SHT31;56065;52.472;13.380;2024-03-07T09:42:09;24.70;41.33
69009;SHT31;56065;52.472;13.380;2024-03-07T09:44:36;25.04;40.12
69009;SHT31;56065;52.472;13.380;2024-03-07T09:47:05;24.78;40.36
69009;SHT31;56065;52.472;13.380;2024-03-07T09:49:32;24.53;40.24
69009;SHT31;56065;52.472;13.380;2024-03-07T09:52:03;24.17;40.45
69009;SHT31;56065;52.472;13.380;2024-03-07T09:54:29;24.37;40.21
69009;SHT31;56065;52.472;13.380;2024-03-07T09:56:57;24.41;39.53
69009;SHT31;56065;52.472;13.380;2024-03-07T09:59:25;23.76;39.08
69009;SHT31;56065;52.472;13.380;2024-03-07T10:01:57;22.93;39.36
69009;SHT31;56065;52.472;13.380;2024-03-07T10:04:29;22.57;40.03
69009;SHT31;56065;52.472;13.380;2024-03-07T10:06:57;20.82;41.42
69009;SHT31;56065;52.472;13.380;2024-03-07T10:09:22;19.29;43.44
69009;SHT31;56065;52.472;13.380;2024-03-07T10:11:58;19.55;43.84
69009;SHT31;56065;52.472;13.380;2024-03-07T10:14:24;20.17;43.86
69009;SHT31;56065;52.472;13.380;2024-03-07T10:16:50;21.16;42.98
69009;SHT31;56065;52.472;13.380;2024-03-07T10:19:15;21.37;42.23
69009;SHT31;56065;52.472;13.380;2024-03-07T10:21:41;22.15;41.90
69009;SHT31;56065;52.472;13.380;2024-03-07T10:24:07;22.83;41.14
69009;SHT31;56065;52.472;13.380;2024-03-07T10:26:39;23.27;40.16
69009;SHT31;56065;52.472;13.380;2024-03-07T10:29:05;24.06;40.38
69009;SHT31;56065;52.472;13.380;2024-03-07T10:31:31;24.57;39.57
69009;SHT31;56065;52.472;13.380;2024-03-07T10:34:01;24.53;38.89
69009;SHT31;56065;52.472;13.380;2024-03-07T10:36:30;23.88;39.43
69009;SHT31;56065;52.472;13.380;2024-03-07T10:38:59;24.70;39.05
69009;SHT31;56065;52.472;13.380;2024-03-07T10:41:43;24.63;38.87
69009;SHT31;56065;52.472;13.380;2024-03-07T10:44:11;24.83;38.83
69009;SHT31;56065;52.472;13.380;2024-03-07T10:46:39;24.46;38.45
69009;SHT31;56065;52.472;13.380;2024-03-07T10:49:07;24.64;38.35
69009;SHT31;56065;52.472;13.380;2024-03-07T10:51:45;25.34;38.56
69009;SHT31;56065;52.472;13.380;2024-03-07T10:54:24;25.63;38.49
69009;SHT31;56065;52.472;13.380;2024-03-07T10:59:30;25.10;37.12
69009;SHT31;56065;52.472;13.380;2024-03-07T11:02:17;24.52;37.87
69009;SHT31;56065;52.472;13.380;2024-03-07T11:04:46;24.23;38.28
69009;SHT31;56065;52.472;13.380;2024-03-07T11:07:12;24.15;38.81
69009;SHT31;56065;52.472;13.380;2024-03-07T11:09:38;23.61;38.67
69009;SHT31;56065;52.472;13.380;2024-03-07T11:12:07;23.55;38.99
69009;SHT31;56065;52.472;13.380;2024-03-07T11:14:36;23.79;38.76
69009;SHT31;56065;52.472;13.380;2024-03-07T11:17:03;23.65;38.83
69009;SHT31;56065;52.472;13.380;2024-03-07T11:19:31;23.08;39.27
69009;SHT31;56065;52.472;13.380;2024-03-07T11:21:57;23.04;40.34
69009;SHT31;56065;52.472;13.380;2024-03-07T11:24:30;23.76;39.19
69009;SHT31;56065;52.472;13.380;2024-03-07T11:27:02;23.38;38.94
69009;SHT31;56065;52.472;13.380;2024-03-07T11:32:12;23.00;39.25
69009;SHT31;56065;52.472;13.380;2024-03-07T11:34:39;22.93;39.94
69009;SHT31;56065;52.472;13.380;2024-03-07T11:37:10;23.51;39.77
69009;SHT31;56065;52.472;13.380;2024-03-07T11:39:46;23.23;39.17
69009;SHT31;56065;52.472;13.380;2024-03-07T11:42:28;23.68;39.81
69009;SHT31;56065;52.472;13.380;2024-03-07T11:44:57;23.98;39.27
69009;SHT31;56065;52.472;13.380;2024-03-07T11:47:26;24.67;39.14
69009;SHT31;56065;52.472;13.380;2024-03-07T11:49:54;25.07;38.52
69009;SHT31;56065;52.472;13.380;2024-03-07T11:52:20;25.50;37.97
69009;SHT31;56065;52.472;13.380;2024-03-07T11:54:45;25.14;37.86
69009;SHT31;56065;52.472;13.380;2024-03-07T11:57:18;24.85;37.87
69009;SHT31;56065;52.472;13.380;2024-03-07T11:59:58;25.93;38.55
69009;SHT31;56065;52.472;13.380;2024-03-07T12:02:26;25.24;37.75
69009;SHT31;56065;52.472;13.380;2024-03-07T12:04:52;25.83;38.29
69009;SHT31;56065;52.472;13.380;2024-03-07T12:07:18;25.49;37.75
69009;SHT31;56065;52.472;13.380;2024-03-07T12:09:44;25.92;37.24
69009;SHT31;56065;52.472;13.380;2024-03-07T12:12:16;25.47;37.57
69009;SHT31;56065;52.472;13.380;2024-03-07T12:14:46;25.42;37.57
69009;SHT31;56065;52.472;13.380;2024-03-07T12:17:13;24.83;38.13
69009;SHT31;56065;52.472;13.380;2024-03-07T12:19:40;24.50;37.86
69009;SHT31;56065;52.472;13.380;2024-03-07T12:22:08;24.15;38.34
69009;SHT31;56065;52.472;13.380;2024-03-07T12:24:38;24.36;38.77
69009;SHT31;56065;52.472;13.380;2024-03-07T12:27:09;23.94;39.31
69009;SHT31;56065;52.472;13.380;2024-03-07T12:29:36;24.39;38.66
69009;SHT31;56065;52.472;13.380;2024-03-07T12:32:04;24.87;39.13
69009;SHT31;56065;52.472;13.380;2024-03-07T12:34:32;25.67;38.61
69009;SHT31;56065;52.472;13.380;2024-03-07T12:37:01;25.16;37.26
69009;SHT31;56065;52.472;13.380;2024-03-07T12:39:27;25.63;37.53
69009;SHT31;56065;52.472;13.380;2024-03-07T12:41:58;25.24;37.65
69009;SHT31;56065;52.472;13.380;2024-03-07T12:44:23;24.68;38.07
69009;SHT31;56065;52.472;13.380;2024-03-07T12:46:51;24.73;37.77
69009;SHT31;56065;52.472;13.380;2024-03-07T12:49:23;25.11;38.40
69009;SHT31;56065;52.472;13.380;2024-03-07T12:51:53;24.95;37.17
69009;SHT31;56065;52.472;13.380;2024-03-07T12:54:19;24.75;37.46
69009;SHT31;56065;52.472;13.380;2024-03-07T12:56:44;24.39;37.33
69009;SHT31;56065;52.472;13.380;2024-03-07T12:59:10;23.90;37.81
69009;SHT31;56065;52.472;13.380;2024-03-07T13:01:35;23.92;37.73
69009;SHT31;56065;52.472;13.380;2024-03-07T13:04:05;23.94;38.79
69009;SHT31;56065;52.472;13.380;2024-03-07T13:06:33;23.54;37.68
69009;SHT31;56065;52.472;13.380;2024-03-07T13:08:59;23.21;37.62
69009;SHT31;56065;52.472;13.380;2024-03-07T13:11:24;22.35;37.89
69009;SHT31;56065;52.472;13.380;2024-03-07T13:13:53;21.93;37.63
69009;SHT31;56065;52.472;13.380;2024-03-07T13:16:18;21.15;38.18
69009;SHT31;56065;52.472;13.380;2024-03-07T13:18:43;21.30;38.63
69009;SHT31;56065;52.472;13.380;2024-03-07T13:21:11;21.09;38.78
69009;SHT31;56065;52.472;13.380;2024-03-07T13:23:36;20.55;39.35
69009;SHT31;56065;52.472;13.380;2024-03-07T13:26:04;20.69;40.24
69009;SHT31;56065;52.472;13.380;2024-03-07T13:28:33;20.18;38.99
69009;SHT31;56065;52.472;13.380;2024-03-07T13:30:59;19.32;38.97
69009;SHT31;56065;52.472;13.380;2024-03-07T13:33:24;18.36;39.98
69009;SHT31;56065;52.472;13.380;2024-03-07T13:35:50;18.40;40.96
69009;SHT31;56065;52.472;13.380;2024-03-07T13:38:17;18.63;41.29
69009;SHT31;56065;52.472;13.380;2024-03-07T13:40:43;18.53;41.04
69009;SHT31;56065;52.472;13.380;2024-03-07T13:43:09;17.91;41.05
69009;SHT31;56065;52.472;13.380;2024-03-07T13:45:36;17.60;41.22
69009;SHT31;56065;52.472;13.380;2024-03-07T13:48:05;17.15;42.04
69009;SHT31;56065;52.472;13.380;2024-03-07T13:50:31;17.10;42.73
69009;SHT31;56065;52.472;13.380;2024-03-07T13:52:57;16.59;43.20
69009;SHT31;56065;52.472;13.380;2024-03-07T13:56:25;16.34;43.86
69009;SHT31;56065;52.472;13.380;2024-03-07T14:02:02;15.73;44.16
69009;SHT31;56065;52.472;13.380;2024-03-07T14:07:58;15.53;45.12
69009;SHT31;56065;52.472;13.380;2024-03-07T14:13:59;15.91;44.68
69009;SHT31;56065;52.472;13.380;2024-03-07T14:16:48;15.74;44.68
69009;SHT31;56065;52.472;13.380;2024-03-07T14:19:35;15.79;44.79
69009;SHT31;56065;52.472;13.380;2024-03-07T14:30:19;14.74;46.05
69009;SHT31;56065;52.472;13.380;2024-03-07T14:32:55;14.85;46.91
69009;SHT31;56065;52.472;13.380;2024-03-07T14:35:31;15.29;46.68
69009;SHT31;56065;52.472;13.380;2024-03-07T14:38:22;15.70;47.05
69009;SHT31;56065;52.472;13.380;2024-03-07T14:40:49;15.90;46.02
69009;SHT31;56065;52.472;13.380;2024-03-07T14:43:16;15.89;46.02
69009;SHT31;56065;52.472;13.380;2024-03-07T14:45:42;15.80;45.91
69009;SHT31;56065;52.472;13.380;2024-03-07T14:48:10;15.49;46.14
69009;SHT31;56065;52.472;13.380;2024-03-07T14:50:41;15.35;45.94
69009;SHT31;56065;52.472;13.380;2024-03-07T14:53:06;15.18;46.08
69009;SHT31;56065;52.472;13.380;2024-03-07T14:55:33;15.02;46.51
69009;SHT31;56065;52.472;13.380;2024-03-07T14:57:59;14.80;46.90
69009;SHT31;56065;52.472;13.380;2024-03-07T15:00:26;14.67;47.52
69009;SHT31;56065;52.472;13.380;2024-03-07T15:02:54;14.73;47.97
69009;SHT31;56065;52.472;13.380;2024-03-07T15:05:23;14.61;47.50
69009;SHT31;56065;52.472;13.380;2024-03-07T15:07:50;14.36;47.74
69009;SHT31;56065;52.472;13.380;2024-03-07T15:10:27;14.19;48.16
69009;SHT31;56065;52.472;13.380;2024-03-07T15:12:53;14.19;48.24
69009;SHT31;56065;52.472;13.380;2024-03-07T15:15:19;14.09;48.47
69009;SHT31;56065;52.472;13.380;2024-03-07T15:17:47;13.92;48.80
69009;SHT31;56065;52.472;13.380;2024-03-07T15:20:13;13.86;48.54
69009;SHT31;56065;52.472;13.380;2024-03-07T15:22:52;13.58;48.86
69009;SHT31;56065;52.472;13.380;2024-03-07T15:25:19;13.57;49.33
69009;SHT31;56065;52.472;13.380;2024-03-07T15:27:45;13.38;50.06
69009;SHT31;56065;52.472;13.380;2024-03-07T15:30:15;12.99;49.98
69009;SHT31;56065;52.472;13.380;2024-03-07T15:32:41;12.73;50.32
69009;SHT31;56065;52.472;13.380;2024-03-07T15:35:11;12.50;51.23
69009;SHT31;56065;52.472;13.380;2024-03-07T15:37:44;12.41;51.15
69009;SHT31;56065;52.472;13.380;2024-03-07T15:40:10;12.20;51.89
69009;SHT31;56065;52.472;13.380;2024-03-07T15:42:44;11.98;52.00
69009;SHT31;56065;52.472;13.380;2024-03-07T15:45:17;11.73;52.51
69009;SHT31;56065;52.472;13.380;2024-03-07T15:47:48;11.53;52.41